Time;durP1;ratioP1;P1;durP2;ratioP2;P2;SDS_P1;SDS_P2;PMS_P1;PMS_P2;Temp;Humidity;BMP_temperature;BMP_pressure;BME280_temperature;BME280_humidity;BME280_pressure;Samples;Min_cycle;Max_cycle;Signal;HPM_P1;HPM_P2
2022/01/17 00:30:20;;;;;;;13.82;2.28;;;4.20;99.90;;;;;;5216151;23;20096;-94
2022/01/17 00:36:03;;;;;;;13.18;2.22;;;4.20;99.90;;;;;;5776608;23;20041;-94
2022/01/17 00:38:29;;;;;;;10.98;1.77;;;4.20;99.90;;;;;;4941512;29;20054;-95
2022/01/17 00:43:30;;;;;;;18.90;2.03;;;4.20;99.90;;;;;;5054445;23;20044;-91
2022/01/17 00:45:57;;;;;;;10.82;2.03;;;4.20;99.90;;;;;;4942685;29;20035;-94
2022/01/17 00:48:22;;;;;;;16.38;3.25;;;4.20;99.90;;;;;;4942875;29;20047;-96
2022/01/17 00:50:50;;;;;;;12.68;1.50;;;4.10;99.90;;;;;;4942386;29;20035;-96
2022/01/17 00:53:19;;;;;;;10.70;1.70;;;4.10;99.90;;;;;;4942210;29;20075;-95
2022/01/17 00:55:51;;;;;;;25.10;3.75;;;4.20;99.90;;;;;;4942500;29;20080;-95
2022/01/17 00:58:21;;;;;;;24.98;2.30;;;4.10;99.90;;;;;;4958457;29;20027;-96
2022/01/17 01:00:47;;;;;;;;;;;4.10;99.90;;;;;;4959980;29;20088;-95
2022/01/17 01:10:59;;;;;;;19.17;2.60;;;4.10;99.90;;;;;;5368078;23;20276;-96
2022/01/17 01:13:30;;;;;;;19.35;2.92;;;4.10;99.90;;;;;;4944674;29;20015;-94
2022/01/17 01:16:22;;;;;;;18.85;2.20;;;4.00;99.90;;;;;;4944455;29;20040;-95
2022/01/17 01:32:01;;;;;;;11.85;1.65;;;4.00;99.90;;;;;;5396330;23;20246;-95
2022/01/17 01:57:37;;;;;;;5.80;1.33;;;4.00;99.90;;;;;;4957231;28;20108;-94
2022/01/17 02:00:06;;;;;;;9.13;1.58;;;4.10;99.90;;;;;;4942950;29;20031;-96
2022/01/17 02:02:35;;;;;;;14.30;1.52;;;4.10;99.90;;;;;;4941703;29;20050;-93
2022/01/17 02:05:05;;;;;;;5.00;1.05;;;4.10;99.90;;;;;;4944263;29;20027;-95
2022/01/17 02:07:31;;;;;;;13.10;1.60;;;4.10;99.90;;;;;;4940944;29;20080;-94
2022/01/17 02:09:57;;;;;;;9.10;1.67;;;4.10;99.90;;;;;;4939931;29;20040;-95
2022/01/17 02:12:29;;;;;;;7.15;2.83;;;4.10;99.90;;;;;;4958440;29;20035;-94
2022/01/17 03:30:10;;;;;;;14.15;1.65;;;3.90;99.90;;;;;;5571182;23;20051;-95
2022/01/17 03:32:36;;;;;;;13.13;2.08;;;3.90;99.90;;;;;;4939099;29;20060;-95
2022/01/17 03:35:05;;;;;;;14.43;1.20;;;3.90;99.90;;;;;;4939777;29;20047;-96
2022/01/17 03:40:13;;;;;;;12.30;1.60;;;3.90;99.90;;;;;;5008422;23;20088;-95
2022/01/17 03:42:40;;;;;;;8.98;1.40;;;3.90;99.90;;;;;;4926175;29;20291;-96
2022/01/17 03:45:10;;;;;;;7.50;1.27;;;3.90;99.90;;;;;;4944183;29;20024;-96
2022/01/17 03:47:42;;;;;;;10.68;1.73;;;3.90;99.90;;;;;;4942727;29;20079;-95
2022/01/17 03:50:12;;;;;;;13.15;1.90;;;3.90;99.90;;;;;;4959646;29;20087;-94
2022/01/17 03:52:42;;;;;;;13.60;1.52;;;3.90;99.90;;;;;;4959442;29;20091;-95
2022/01/17 03:55:14;;;;;;;11.45;1.83;;;3.90;99.90;;;;;;4941448;29;20038;-95
2022/01/17 04:23:32;;;;;;;5.72;1.10;;;4.00;99.90;;;;;;4950629;29;20441;-96
2022/01/17 04:25:58;;;;;;;7.75;1.08;;;4.00;99.90;;;;;;4935761;29;20039;-94
2022/01/17 04:28:24;;;;;;;8.20;1.67;;;4.10;99.90;;;;;;4954345;29;20031;-96
2022/01/17 04:30:49;;;;;;;8.65;1.42;;;4.10;99.90;;;;;;4939060;29;20050;-96
2022/01/17 04:33:15;;;;;;;8.63;1.15;;;4.20;99.90;;;;;;4940116;29;20035;-94
2022/01/17 04:35:51;;;;;;;13.18;1.30;;;4.20;99.90;;;;;;4939651;29;20023;-96
2022/01/17 04:38:18;;;;;;;5.43;1.52;;;4.30;99.90;;;;;;4952985;29;20075;-95
2022/01/17 04:40:50;;;;;;;14.35;1.52;;;4.30;99.90;;;;;;4946452;29;20024;-95
2022/01/17 04:43:22;;;;;;;10.68;1.40;;;4.30;99.90;;;;;;4944777;29;20032;-96
2022/01/17 04:45:49;;;;;;;8.52;1.08;;;4.30;99.90;;;;;;4942779;29;20047;-96
2022/01/17 04:48:16;;;;;;;7.20;1.63;;;4.30;99.90;;;;;;4957965;29;20047;-94
2022/01/17 04:50:41;;;;;;;8.48;1.33;;;4.30;99.90;;;;;;4941358;29;20032;-96
2022/01/17 04:53:08;;;;;;;8.38;1.33;;;4.30;99.90;;;;;;4959957;29;20032;-94
2022/01/17 04:55:36;;;;;;;11.15;1.60;;;4.30;99.90;;;;;;4941233;29;20031;-95
2022/01/17 04:58:06;;;;;;;4.85;0.77;;;4.30;99.90;;;;;;4957529;29;20027;-96
2022/01/17 05:00:31;;;;;;;7.47;1.00;;;4.30;99.90;;;;;;4945202;29;20146;-96
2022/01/17 05:02:57;;;;;;;10.88;1.35;;;4.30;99.90;;;;;;4945273;29;20019;-95
2022/01/17 05:05:23;;;;;;;9.65;1.60;;;4.30;99.90;;;;;;4944234;29;20047;-95
2022/01/17 05:07:50;;;;;;;8.48;1.27;;;4.20;99.90;;;;;;4961950;29;20035;-96
2022/01/17 05:10:17;;;;;;;12.10;1.45;;;4.20;99.90;;;;;;4946617;29;20128;-96
2022/01/17 05:20:29;;;;;;;7.25;0.98;;;4.10;99.90;;;;;;5279457;23;20145;-95
2022/01/17 05:22:55;;;;;;;7.30;1.02;;;4.10;99.90;;;;;;4943764;29;20059;-96
2022/01/17 05:25:21;;;;;;;9.52;1.00;;;4.10;99.90;;;;;;4945226;29;20031;-95
2022/01/17 05:35:32;;;;;;;14.93;1.92;;;4.10;99.90;;;;;;4916331;29;20060;-95
2022/01/17 05:37:58;;;;;;;10.70;1.00;;;4.10;99.90;;;;;;4901662;29;20044;-96
2022/01/17 05:40:24;;;;;;;15.88;2.17;;;4.00;99.90;;;;;;4903001;29;20024;-94
2022/01/17 05:42:53;;;;;;;8.15;1.00;;;4.00;99.90;;;;;;4917717;29;20037;-95
2022/01/17 05:45:25;;;;;;;12.07;1.00;;;4.00;99.90;;;;;;4905075;29;20033;-95
2022/01/17 05:47:53;;;;;;;16.55;1.52;;;4.00;99.90;;;;;;4922024;29;20036;-93
2022/01/17 05:50:19;;;;;;;9.55;1.42;;;4.00;99.90;;;;;;4903711;29;20047;-94
2022/01/17 05:52:48;;;;;;;6.10;1.15;;;4.00;99.90;;;;;;4919425;29;20028;-96
2022/01/17 05:55:17;;;;;;;13.25;1.08;;;4.00;99.90;;;;;;4920114;29;20017;-94
2022/01/17 05:57:43;;;;;;;11.23;1.38;;;4.00;99.90;;;;;;4904088;29;20016;-95
2022/01/17 06:00:13;;;;;;;13.60;2.80;;;4.00;99.90;;;;;;4906411;29;20040;-95
2022/01/17 06:08:16;;;;;;;9.35;1.13;;;4.10;99.90;;;;;;5084373;23;20047;-96
2022/01/17 07:17:15;;;;;;;13.80;1.85;;;3.90;99.90;;;;;;4841027;23;20837;-95
2022/01/17 07:22:16;;;;;;;11.10;1.98;;;3.90;99.90;;;;;;5595882;23;20060;-95
2022/01/17 07:24:44;;;;;;;13.45;2.05;;;3.80;99.90;;;;;;4923504;29;20066;-95
2022/01/17 07:27:11;;;;;;;14.98;2.45;;;3.80;99.90;;;;;;4923546;29;20035;-96
2022/01/17 08:09:30;;;;;;;11.68;2.40;;;3.50;99.90;;;;;;4935076;29;20047;-93
2022/01/17 08:11:58;;;;;;;17.17;2.10;;;3.50;99.90;;;;;;4945692;29;20115;-93
2022/01/17 08:14:27;;;;;;;10.10;1.95;;;3.50;99.90;;;;;;4930160;29;20024;-93
2022/01/17 08:16:55;;;;;;;17.95;2.58;;;3.50;99.90;;;;;;4944619;29;20462;-93
2022/01/17 08:19:24;;;;;;;20.80;2.70;;;3.40;99.90;;;;;;4938260;29;20038;-93
2022/01/17 08:21:52;;;;;;;14.40;2.25;;;3.40;99.90;;;;;;4921876;29;20490;-94
2022/01/17 08:24:21;;;;;;;14.35;2.63;;;3.30;99.90;;;;;;4921579;29;20051;-94
2022/01/17 08:26:50;;;;;;;16.52;3.63;;;3.20;99.90;;;;;;4922003;29;20043;-95
2022/01/17 08:29:17;;;;;;;10.32;1.80;;;3.20;99.90;;;;;;4925058;29;20020;-94
2022/01/17 08:31:46;;;;;;;22.35;2.33;;;3.20;99.90;;;;;;4924389;29;20116;-95
2022/01/17 08:34:12;;;;;;;15.45;2.38;;;3.20;99.90;;;;;;4922976;29;20497;-94
2022/01/17 08:36:38;;;;;;;15.60;2.75;;;3.20;99.90;;;;;;4925181;29;20044;-91
2022/01/17 08:39:06;;;;;;;10.75;2.00;;;3.10;99.90;;;;;;4902404;29;20028;-92
2022/01/17 08:41:42;;;;;;;15.75;3.13;;;3.20;99.90;;;;;;4908229;29;20034;-95
2022/01/17 08:44:12;;;;;;;17.45;3.25;;;3.10;99.90;;;;;;4906774;29;20036;-94
2022/01/17 08:46:38;;;;;;;11.43;1.95;;;3.00;99.90;;;;;;4906358;29;20051;-92
2022/01/17 08:49:05;;;;;;;11.00;1.92;;;3.00;99.90;;;;;;4905267;29;20029;-95
2022/01/17 08:51:31;;;;;;;16.70;2.67;;;3.00;99.90;;;;;;4904339;29;20035;-92
2022/01/17 08:53:56;;;;;;;21.52;4.28;;;3.10;99.90;;;;;;4903046;29;20032;-94
2022/01/17 08:56:22;;;;;;;21.30;3.22;;;3.10;99.90;;;;;;4928528;29;20032;-92
2022/01/17 08:58:48;;;;;;;15.32;3.38;;;3.10;99.90;;;;;;4910686;29;20028;-94
2022/01/17 09:01:14;;;;;;;16.58;2.58;;;3.10;99.90;;;;;;4899620;29;20029;-95
2022/01/17 09:03:41;;;;;;;11.80;3.75;;;3.10;99.90;;;;;;4890804;29;20517;-94
2022/01/17 09:06:07;;;;;;;10.82;1.88;;;3.10;99.90;;;;;;4909676;29;20024;-94
2022/01/17 09:08:35;;;;;;;15.50;3.20;;;3.20;99.90;;;;;;4921440;29;20056;-93
2022/01/17 09:11:01;;;;;;;16.10;3.08;;;3.20;99.90;;;;;;4926310;29;20028;-94
2022/01/17 09:13:30;;;;;;;15.65;3.15;;;3.30;99.90;;;;;;4907725;29;20088;-95
2022/01/17 09:15:58;;;;;;;7.80;2.20;;;3.30;99.90;;;;;;4922877;29;20115;-96
2022/01/17 09:18:24;;;;;;;9.80;1.75;;;3.30;99.90;;;;;;4905981;29;20032;-94
2022/01/17 09:20:51;;;;;;;10.32;3.38;;;3.30;99.90;;;;;;4906010;29;20024;-93
2022/01/17 09:23:18;;;;;;;10.32;1.88;;;3.40;99.90;;;;;;4906685;29;20040;-92
2022/01/17 09:25:45;;;;;;;5.38;1.45;;;3.50;99.90;;;;;;4920059;29;20024;-94
2022/01/17 09:28:11;;;;;;;11.57;1.70;;;3.60;99.90;;;;;;4922671;29;20039;-93
2022/01/17 09:30:37;;;;;;;19.15;2.47;;;3.70;99.90;;;;;;4929826;29;20024;-95
2022/01/17 09:33:06;;;;;;;13.75;3.42;;;3.90;99.90;;;;;;4910854;29;20096;-95
2022/01/17 09:35:33;;;;;;;11.95;2.08;;;3.90;99.90;;;;;;4908922;29;20655;-95
2022/01/17 09:38:02;;;;;;;10.65;2.53;;;4.10;99.90;;;;;;4907652;29;20069;-96
2022/01/17 09:40:28;;;;;;;15.10;3.17;;;4.20;99.90;;;;;;4907027;29;20043;-93
2022/01/17 09:42:56;;;;;;;13.60;2.75;;;4.30;99.90;;;;;;4923635;29;20474;-94
2022/01/17 09:45:25;;;;;;;14.60;3.45;;;4.50;99.90;;;;;;4926748;29;20032;-94
2022/01/17 09:47:51;;;;;;;12.18;2.60;;;4.70;99.90;;;;;;4932311;29;20040;-95
2022/01/17 09:50:31;;;;;;;7.80;2.33;;;4.90;99.90;;;;;;4911848;29;20032;-94
2022/01/17 09:52:59;;;;;;;12.18;2.85;;;5.10;99.90;;;;;;4909119;29;20446;-94
2022/01/17 09:55:28;;;;;;;14.05;3.63;;;5.30;99.90;;;;;;4911185;29;20473;-93
2022/01/17 09:57:54;;;;;;;10.05;3.28;;;5.50;99.90;;;;;;4910627;29;20028;-93
2022/01/17 10:00:26;;;;;;;14.48;4.55;;;5.80;99.90;;;;;;4909032;29;20039;-93
2022/01/17 10:03:13;;;;;;;11.30;2.70;;;6.10;99.90;;;;;;4907850;29;20068;-94
2022/01/17 10:05:41;;;;;;;12.57;2.63;;;6.40;99.90;;;;;;4909553;29;20438;-93
2022/01/17 10:08:11;;;;;;;13.27;2.40;;;6.70;99.90;;;;;;4906014;29;20048;-95
2022/01/17 10:10:40;;;;;;;8.37;2.33;;;7.10;99.90;;;;;;4892038;29;20044;-95
2022/01/17 10:13:09;;;;;;;8.45;2.28;;;7.50;99.90;;;;;;4893668;29;20039;-95
2022/01/17 10:15:48;;;;;;;8.38;2.20;;;7.80;99.90;;;;;;4909996;29;20056;-93
2022/01/17 10:18:28;;;;;;;9.48;2.65;;;8.10;99.90;;;;;;4890181;29;20104;-96
2022/01/17 10:21:00;;;;;;;11.52;1.98;;;8.50;99.90;;;;;;4890359;29;20127;-93
2022/01/17 10:24:09;;;;;;;16.67;2.50;;;8.90;99.90;;;;;;4891624;29;20025;-93
2022/01/17 10:26:51;;;;;;;13.75;2.45;;;9.20;99.90;;;;;;4906925;29;20041;-96
2022/01/17 10:35:20;;;;;;;16.58;3.50;;;9.40;99.90;;;;;;4902596;29;20056;-93
2022/01/17 10:38:07;;;;;;;12.77;2.65;;;9.60;99.90;;;;;;4890743;29;20033;-94
2022/01/17 10:40:46;;;;;;;15.60;3.20;;;9.90;99.90;;;;;;4910894;29;20033;-95
2022/01/17 10:43:35;;;;;;;11.65;2.80;;;10.20;99.90;;;;;;4898002;29;20112;-94
2022/01/17 10:46:09;;;;;;;13.10;3.28;;;10.40;99.90;;;;;;4900298;29;20043;-95
2022/01/17 10:48:56;;;;;;;15.07;3.20;;;10.50;99.90;;;;;;4884507;29;20056;-95
2022/01/17 10:51:35;;;;;;;12.80;1.92;;;10.80;99.90;;;;;;4896998;29;20029;-94
2022/01/17 10:54:17;;;;;;;10.20;1.95;;;10.90;99.90;;;;;;4883881;29;20112;-95
2022/01/17 10:57:09;;;;;;;6.50;1.23;;;10.90;99.90;;;;;;4895682;29;20063;-95
2022/01/17 12:13:22;;;;;;;9.18;2.35;;;13.70;88.80;;;;;;5169857;23;20091;-95
2022/01/17 12:16:07;;;;;;;5.40;1.60;;;13.80;88.10;;;;;;4940966;29;20056;-93
2022/01/17 12:19:08;;;;;;;9.93;1.90;;;14.00;87.60;;;;;;4960136;29;20032;-95
2022/01/17 12:21:53;;;;;;;;;;;14.30;86.50;;;;;;4901401;29;20064;-94
2022/01/17 12:24:26;;;;;;;11.02;1.75;;;14.30;85.20;;;;;;4942032;29;19906;-95
2022/01/17 12:27:01;;;;;;;7.47;1.90;;;14.30;84.90;;;;;;4938594;29;20035;-95
2022/01/17 12:29:43;;;;;;;8.10;1.73;;;14.40;84.30;;;;;;4959321;29;20022;-95
2022/01/17 12:32:24;;;;;;;10.10;1.73;;;14.50;83.60;;;;;;4959387;29;20028;-96
2022/01/17 12:35:05;;;;;;;;;;;14.50;83.20;;;;;;4954963;29;20019;-95
2022/01/17 12:37:45;;;;;;;10.45;1.67;;;14.70;82.70;;;;;;4943010;29;19991;-96
2022/01/17 12:40:32;;;;;;;6.85;1.73;;;14.70;81.50;;;;;;4940584;29;20040;-95
2022/01/17 12:43:06;;;;;;;8.07;2.08;;;14.60;80.80;;;;;;4931819;29;20032;-96
2022/01/17 12:45:44;;;;;;;5.35;1.92;;;14.70;80.90;;;;;;4933942;29;20027;-94
2022/01/17 12:48:16;;;;;;;7.85;1.58;;;14.80;80.60;;;;;;4926256;29;20068;-96
2022/01/17 12:50:46;;;;;;;8.38;1.67;;;14.90;80.00;;;;;;4937948;29;20032;-95
2022/01/17 12:53:21;;;;;;;6.20;1.60;;;15.00;79.50;;;;;;4939356;29;20119;-96
2022/01/17 12:55:50;;;;;;;10.45;1.95;;;15.30;79.20;;;;;;4918434;29;20398;-94
2022/01/17 13:21:00;;;;;;;8.35;1.90;;;16.40;73.50;;;;;;6023191;23;20231;31
2022/01/17 13:23:46;;;;;;;4.72;1.55;;;16.60;72.70;;;;;;4868267;29;20076;-92
2022/01/17 13:26:30;;;;;;;5.15;1.63;;;16.80;71.90;;;;;;5342163;23;20019;-91
2022/01/17 13:29:01;;;;;;;3.08;1.65;;;16.90;70.90;;;;;;4923863;29;20067;-96
2022/01/17 13:31:31;;;;;;;4.35;1.35;;;16.80;70.60;;;;;;4927642;29;20032;-96
2022/01/17 13:34:17;;;;;;;6.60;2.08;;;17.00;70.30;;;;;;4927934;29;20035;-95
2022/01/17 13:36:44;;;;;;;8.13;2.00;;;17.10;69.60;;;;;;4931805;29;20020;-94
2022/01/17 13:39:11;;;;;;;9.82;1.85;;;17.20;68.70;;;;;;4921437;29;20047;-94
2022/01/17 13:41:40;;;;;;;11.30;2.38;;;17.20;68.40;;;;;;4907987;29;20028;-95
2022/01/17 13:44:07;;;;;;;4.35;1.90;;;17.20;68.20;;;;;;4908669;29;20064;-94
2022/01/17 13:46:37;;;;;;;4.70;1.73;;;17.30;68.00;;;;;;4924218;29;20020;-96
2022/01/17 13:49:04;;;;;;;;;;;17.30;67.20;;;;;;4909104;29;20037;-95
2022/01/17 13:51:30;;;;;;;8.23;1.63;;;17.40;67.30;;;;;;4911352;29;19907;-94
2022/01/17 13:53:56;;;;;;;5.13;1.30;;;17.60;67.10;;;;;;4907216;29;20431;-95
2022/01/17 13:56:25;;;;;;;7.60;1.88;;;17.90;66.70;;;;;;4893389;29;20031;-96
2022/01/17 13:58:53;;;;;;;8.13;1.90;;;18.20;65.90;;;;;;4914937;29;20163;-94
2022/01/17 14:01:20;;;;;;;7.43;2.53;;;18.40;65.00;;;;;;4909425;29;20032;-95
2022/01/17 14:03:46;;;;;;;7.03;1.63;;;18.50;64.60;;;;;;4910079;29;20059;-94
2022/01/17 14:06:14;;;;;;;8.48;1.95;;;18.70;64.20;;;;;;4909106;29;20056;-95
2022/01/17 14:08:44;;;;;;;4.15;1.50;;;18.90;64.00;;;;;;4914470;29;20024;-94
2022/01/17 14:11:16;;;;;;;7.95;1.95;;;19.10;63.60;;;;;;4922410;29;20017;-95
2022/01/17 14:13:47;;;;;;;7.57;1.48;;;19.30;63.10;;;;;;4910802;29;20036;-94
2022/01/17 14:16:16;;;;;;;19.25;2.63;;;19.50;62.70;;;;;;4925298;29;20095;-95
2022/01/17 14:19:03;;;;;;;16.33;1.92;;;19.50;62.20;;;;;;4905116;29;20489;-95
2022/01/17 14:21:31;;;;;;;4.38;1.40;;;19.60;61.70;;;;;;4909498;29;20040;-95
2022/01/17 14:24:15;;;;;;;7.25;1.58;;;19.70;61.30;;;;;;4934589;29;20016;-93
2022/01/17 14:26:48;;;;;;;10.50;1.95;;;19.70;61.00;;;;;;4930781;29;20051;-94
2022/01/17 14:29:20;;;;;;;9.63;1.83;;;19.70;60.80;;;;;;4931753;29;20025;-95
2022/01/17 14:31:47;;;;;;;9.98;1.73;;;19.80;60.80;;;;;;4920909;29;20039;-94
2022/01/17 14:34:27;;;;;;;11.82;2.78;;;19.90;60.30;;;;;;4903960;29;20063;-95
2022/01/17 14:37:06;;;;;;;12.20;2.20;;;20.00;59.80;;;;;;4903799;29;20043;-93
2022/01/17 14:39:35;;;;;;;6.47;2.08;;;20.00;59.50;;;;;;4903055;29;20125;-93
2022/01/17 14:42:07;;;;;;;9.88;1.67;;;19.90;59.40;;;;;;4903490;29;20062;-92
2022/01/17 14:44:36;;;;;;;13.07;1.83;;;19.80;59.20;;;;;;4902406;29;20155;-94
2022/01/17 14:47:07;;;;;;;13.13;1.95;;;19.20;59.70;;;;;;4903196;29;20115;-93
2022/01/17 14:49:41;;;;;;;9.70;2.13;;;18.20;61.00;;;;;;4906656;29;20028;-93
2022/01/17 14:52:12;;;;;;;9.30;2.08;;;17.30;63.10;;;;;;4906422;29;20036;-95
2022/01/17 14:54:49;;;;;;;7.35;2.05;;;16.40;65.10;;;;;;4913582;29;20024;-95
2022/01/17 15:00:07;;;;;;;7.35;2.00;;;15.00;68.60;;;;;;4924244;29;20098;-95
2022/01/17 15:02:39;;;;;;;10.10;2.10;;;14.30;69.90;;;;;;4909110;29;20032;-94
2022/01/17 15:05:05;;;;;;;8.10;1.70;;;13.70;71.40;;;;;;4906887;29;20036;-94
2022/01/17 15:07:31;;;;;;;8.40;1.90;;;13.20;73.00;;;;;;4890121;29;20075;-96
2022/01/17 15:09:58;;;;;;;8.98;1.63;;;12.80;74.10;;;;;;4907543;29;20035;-95
2022/01/17 15:12:24;;;;;;;13.95;2.47;;;12.60;75.10;;;;;;4906553;29;20443;-93
2022/01/17 15:14:50;;;;;;;8.80;1.90;;;12.40;76.00;;;;;;4904939;29;20025;-94
2022/01/17 15:17:23;;;;;;;13.00;2.53;;;12.10;76.50;;;;;;4906315;29;20028;-94
2022/01/17 15:19:49;;;;;;;13.60;3.95;;;11.90;77.30;;;;;;4907704;29;20032;-94
2022/01/17 15:22:15;;;;;;;16.77;3.00;;;11.70;78.00;;;;;;4902507;29;20039;-92
2022/01/17 15:24:41;;;;;;;14.63;2.88;;;11.60;78.90;;;;;;4902715;29;20032;-94
2022/01/17 15:27:07;;;;;;;11.63;2.30;;;11.50;79.10;;;;;;4917593;29;20052;-94
2022/01/17 15:29:35;;;;;;;14.25;2.38;;;11.40;79.40;;;;;;4902286;29;20060;-94
2022/01/17 15:32:08;;;;;;;10.40;3.70;;;11.30;79.70;;;;;;4902174;29;20024;-92
2022/01/17 15:34:34;;;;;;;8.80;2.42;;;11.20;80.30;;;;;;4901974;29;20060;-93
2022/01/17 15:37:37;;;;;;;21.00;6.63;;;11.00;80.60;;;;;;4909918;29;20032;-95
2022/01/17 17:07:56;;;;;;;10.23;4.43;;;7.50;94.20;;;;;;5254964;23;20046;-96
2022/01/17 17:13:00;;;;;;;11.48;3.38;;;7.40;94.80;;;;;;5062349;23;20075;-95
2022/01/17 17:15:36;;;;;;;9.65;3.78;;;7.30;95.00;;;;;;4951239;29;20108;-96
2022/01/17 17:23:15;;;;;;;8.75;2.90;;;7.10;95.70;;;;;;5906469;23;20011;-95
2022/01/17 17:25:45;;;;;;;11.00;3.28;;;7.00;95.90;;;;;;4962074;29;21085;-95
2022/01/17 17:28:14;;;;;;;10.13;2.83;;;7.00;96.20;;;;;;4949144;28;20051;-96
2022/01/17 17:30:41;;;;;;;8.18;3.50;;;7.00;96.50;;;;;;4960109;29;20016;-95
2022/01/17 17:33:07;;;;;;;8.82;3.00;;;6.90;96.70;;;;;;4934003;29;20035;-95
2022/01/17 17:41:17;;;;;;;15.55;5.65;;;6.60;97.30;;;;;;5263495;23;20400;-95
2022/01/17 17:43:55;;;;;;;15.13;5.35;;;6.60;97.60;;;;;;4923290;29;20038;-95
2022/01/17 17:46:24;;;;;;;14.80;5.78;;;6.50;97.80;;;;;;4924465;29;20486;-96
2022/01/17 17:48:51;;;;;;;17.08;5.72;;;6.50;98.10;;;;;;4923073;29;20149;-93
2022/01/17 17:51:26;;;;;;;14.75;5.45;;;6.40;98.30;;;;;;4923630;29;20028;-93
2022/01/17 17:54:01;;;;;;;16.35;5.63;;;6.40;98.60;;;;;;4923367;29;20437;-93
2022/01/17 17:56:27;;;;;;;12.85;5.75;;;6.40;98.80;;;;;;4923359;29;20505;-94
2022/01/17 17:59:02;;;;;;;14.75;6.13;;;6.30;99.00;;;;;;4923341;29;20028;-94
2022/01/17 18:01:29;;;;;;;18.35;6.82;;;6.30;99.20;;;;;;4923196;29;20032;-92
2022/01/17 18:03:55;;;;;;;17.48;5.35;;;6.20;99.40;;;;;;4926078;29;20055;-92
2022/01/17 18:06:24;;;;;;;11.65;5.05;;;6.20;99.70;;;;;;4938555;29;20035;-92
2022/01/17 18:08:50;;;;;;;15.02;5.28;;;6.10;99.90;;;;;;4924270;29;20036;-94
2022/01/17 18:11:17;;;;;;;9.57;4.35;;;6.20;99.90;;;;;;4923494;29;20023;-95
2022/01/17 18:13:43;;;;;;;9.15;4.38;;;6.10;99.90;;;;;;4923570;29;20187;-94
2022/01/17 18:16:09;;;;;;;8.00;4.20;;;6.10;99.90;;;;;;4923887;29;20122;-94
2022/01/17 18:18:37;;;;;;;8.07;3.83;;;6.10;99.90;;;;;;4915636;29;20031;-93
2022/01/17 18:21:03;;;;;;;16.73;5.43;;;6.10;99.90;;;;;;4910809;29;20549;-94
2022/01/17 18:23:32;;;;;;;9.48;4.22;;;6.00;99.90;;;;;;4905285;29;20084;-94
2022/01/17 18:25:59;;;;;;;9.02;4.00;;;6.00;99.90;;;;;;4907255;29;20040;-94
2022/01/17 18:28:24;;;;;;;8.65;4.22;;;5.90;99.90;;;;;;4917694;29;20043;-95
2022/01/17 18:30:54;;;;;;;8.48;4.15;;;5.90;99.90;;;;;;4924757;29;20035;-95
2022/01/17 18:33:25;;;;;;;12.27;4.53;;;5.80;99.90;;;;;;4908347;29;20032;-96
2022/01/17 18:36:00;;;;;;;8.13;4.00;;;5.70;99.90;;;;;;4908495;29;20095;-95
2022/01/17 18:38:38;;;;;;;9.07;4.05;;;5.70;99.90;;;;;;4908575;29;20039;-96
2022/01/17 18:41:12;;;;;;;8.75;4.13;;;5.60;99.90;;;;;;4910171;29;20048;-95
2022/01/17 18:43:38;;;;;;;7.80;4.00;;;5.50;99.90;;;;;;4915020;29;20028;-93
2022/01/17 18:46:10;;;;;;;11.57;3.72;;;5.40;99.90;;;;;;4910261;29;20024;-94
2022/01/17 18:48:36;;;;;;;9.32;3.70;;;5.30;99.90;;;;;;4907778;29;20048;-95
2022/01/17 18:51:04;;;;;;;10.27;3.70;;;5.30;99.90;;;;;;4917198;29;20035;-96
2022/01/17 18:53:32;;;;;;;12.10;4.30;;;5.20;99.90;;;;;;4917570;29;20051;-95
2022/01/17 18:56:03;;;;;;;12.05;4.43;;;5.20;99.90;;;;;;4925307;29;20091;-95
2022/01/17 18:58:29;;;;;;;;;;;5.20;99.90;;;;;;4896658;29;20032;-94
2022/01/17 19:00:55;;;;;;;6.43;4.03;;;5.10;99.90;;;;;;4903139;29;19912;-95
2022/01/17 19:03:27;;;;;;;8.48;4.45;;;5.10;99.90;;;;;;4915419;29;20057;-94
2022/01/17 19:05:54;;;;;;;10.20;4.38;;;5.00;99.90;;;;;;4903240;29;20028;-96
2022/01/17 19:08:26;;;;;;;7.15;4.07;;;5.00;99.90;;;;;;4904700;29;20044;-95
2022/01/17 19:10:52;;;;;;;9.00;5.25;;;4.90;99.90;;;;;;4905782;29;20029;-93
2022/01/17 19:13:18;;;;;;;11.35;5.07;;;4.90;99.90;;;;;;4912811;29;20063;-95
2022/01/17 19:15:48;;;;;;;11.35;5.80;;;4.80;99.90;;;;;;4912885;29;20063;-95
2022/01/17 19:21:04;;;;;;;14.55;5.07;;;4.70;99.90;;;;;;4908148;29;20491;-95
2022/01/17 19:23:31;;;;;;;13.30;5.95;;;4.60;99.90;;;;;;4915481;29;20035;-95
2022/01/17 19:26:00;;;;;;;10.98;4.88;;;4.50;99.90;;;;;;4905075;29;20025;-93
2022/01/17 19:28:30;;;;;;;8.98;4.82;;;4.50;99.90;;;;;;4890447;29;20044;-93
2022/01/17 19:31:02;;;;;;;9.63;4.82;;;4.40;99.90;;;;;;4920265;29;20025;-95
2022/01/17 19:33:34;;;;;;;12.35;5.53;;;4.40;99.90;;;;;;4916147;29;20040;-92
2022/01/17 19:36:02;;;;;;;16.55;6.90;;;4.30;99.90;;;;;;4903915;29;20033;-96
2022/01/17 19:38:34;;;;;;;18.05;7.85;;;4.30;99.90;;;;;;4902420;29;20214;-94
2022/01/17 19:41:00;;;;;;;25.20;9.27;;;4.20;99.90;;;;;;4908842;29;20067;-92
2022/01/17 19:43:28;;;;;;;20.80;9.23;;;4.20;99.90;;;;;;4929879;29;20028;-96
2022/01/17 19:45:56;;;;;;;20.83;8.45;;;4.10;99.90;;;;;;4923582;29;20028;-94
2022/01/17 19:48:21;;;;;;;22.65;7.78;;;4.10;99.90;;;;;;4921715;29;20047;-94
2022/01/17 19:50:48;;;;;;;18.45;8.13;;;4.10;99.90;;;;;;4921270;29;20020;-93
2022/01/17 19:53:16;;;;;;;17.67;8.30;;;4.00;99.90;;;;;;4917528;29;20028;-94
2022/01/17 19:55:44;;;;;;;19.90;8.45;;;4.00;99.90;;;;;;4912820;29;20024;-94
2022/01/17 19:58:10;;;;;;;16.00;7.00;;;3.90;99.90;;;;;;4906210;29;20239;-95
2022/01/17 20:00:37;;;;;;;14.95;6.60;;;3.90;99.90;;;;;;4905385;29;20040;-95
2022/01/17 20:03:06;;;;;;;13.05;6.72;;;3.90;99.90;;;;;;4910773;29;20092;-95
2022/01/17 20:05:33;;;;;;;14.45;5.78;;;3.80;99.90;;;;;;4899886;29;20036;-94
2022/01/17 20:08:02;;;;;;;16.90;6.03;;;3.80;99.90;;;;;;4911467;29;20076;-95
2022/01/17 20:10:36;;;;;;;13.82;6.22;;;3.70;99.90;;;;;;4934079;29;20050;-95
2022/01/17 20:13:05;;;;;;;13.57;5.78;;;3.70;99.90;;;;;;4917364;29;20032;-95
2022/01/17 20:15:31;;;;;;;11.25;5.10;;;3.70;99.90;;;;;;4920213;29;20047;-95
2022/01/17 20:17:57;;;;;;;16.10;4.85;;;3.70;99.90;;;;;;4923997;29;20035;-96
2022/01/17 20:20:23;;;;;;;10.75;5.20;;;3.60;99.90;;;;;;4905332;29;20466;-93
2022/01/17 20:22:50;;;;;;;11.80;4.97;;;3.60;99.90;;;;;;4918811;29;20028;-95
2022/01/17 20:25:17;;;;;;;13.02;4.93;;;3.50;99.90;;;;;;4920549;29;20027;-93
2022/01/17 20:27:44;;;;;;;10.55;5.05;;;3.50;99.90;;;;;;4921653;29;20032;-95
2022/01/17 20:30:12;;;;;;;7.53;4.18;;;3.50;99.90;;;;;;4921465;29;20059;-94
2022/01/17 20:32:39;;;;;;;9.43;5.10;;;3.50;99.90;;;;;;4893835;29;20028;-93
2022/01/17 20:35:10;;;;;;;8.65;4.38;;;3.40;99.90;;;;;;4908564;29;20139;-94
2022/01/17 20:42:57;;;;;;;8.13;3.80;;;3.30;99.90;;;;;;5237089;23;20057;-94
2022/01/17 20:45:24;;;;;;;12.98;4.20;;;3.20;99.90;;;;;;4931829;29;20063;-94
2022/01/17 20:47:51;;;;;;;10.00;4.47;;;3.20;99.90;;;;;;4920858;29;20071;-93
2022/01/17 20:50:17;;;;;;;8.50;4.60;;;3.20;99.90;;;;;;4921040;29;20141;-94
2022/01/17 20:52:43;;;;;;;8.13;4.20;;;3.20;99.90;;;;;;4930160;29;20118;-94
2022/01/17 20:55:10;;;;;;;6.45;3.55;;;3.20;99.90;;;;;;4939144;29;20031;-93
2022/01/17 20:57:37;;;;;;;6.32;3.55;;;3.10;99.90;;;;;;4939628;29;20023;-93
2022/01/17 21:00:06;;;;;;;7.53;4.07;;;3.10;99.90;;;;;;4938527;29;20035;-94
2022/01/17 21:02:32;;;;;;;13.90;6.03;;;2.90;99.90;;;;;;4939373;29;20023;-95
2022/01/17 21:04:58;;;;;;;18.27;6.32;;;2.90;99.90;;;;;;4930779;29;20075;-95
2022/01/17 21:12:37;;;;;;;8.73;3.60;;;2.80;99.90;;;;;;4916172;29;20040;-95
2022/01/17 21:15:04;;;;;;;7.05;3.75;;;2.80;99.90;;;;;;4906312;29;20040;-96
2022/01/17 21:17:30;;;;;;;15.82;6.95;;;2.70;99.90;;;;;;4902537;29;20042;-94
2022/01/17 21:19:56;;;;;;;10.95;4.32;;;2.60;99.90;;;;;;4904628;29;20028;-93
2022/01/17 21:22:22;;;;;;;9.43;4.72;;;2.60;99.90;;;;;;4906678;29;20142;-93
2022/01/17 21:24:49;;;;;;;9.95;4.90;;;2.50;99.90;;;;;;4905578;29;20073;-94
2022/01/17 21:27:14;;;;;;;5.38;3.65;;;2.50;99.90;;;;;;4905477;29;20394;-93
2022/01/17 21:29:40;;;;;;;8.63;3.75;;;2.40;99.90;;;;;;4904492;29;20107;-94
2022/01/17 21:32:08;;;;;;;6.80;3.88;;;2.40;99.90;;;;;;4900996;29;20024;-93
2022/01/17 21:34:36;;;;;;;8.32;3.97;;;2.30;99.90;;;;;;4881696;29;20029;-94
2022/01/17 21:37:04;;;;;;;16.48;4.97;;;2.30;99.90;;;;;;4883611;29;20021;-94
2022/01/17 21:39:34;;;;;;;7.95;4.38;;;2.20;99.90;;;;;;4884665;29;20037;-93
2022/01/17 21:42:01;;;;;;;6.15;4.18;;;2.10;99.90;;;;;;4883771;29;20025;-93
2022/01/17 21:44:28;;;;;;;8.77;4.40;;;2.10;99.90;;;;;;4877433;29;20033;-93
2022/01/17 21:46:54;;;;;;;12.00;5.30;;;2.00;99.90;;;;;;4884480;29;20020;-93
2022/01/17 21:49:21;;;;;;;14.93;4.32;;;1.90;99.90;;;;;;4885389;29;20696;-94
2022/01/17 21:51:47;;;;;;;10.23;4.28;;;1.90;99.90;;;;;;4883460;29;20024;-95
2022/01/17 21:54:13;;;;;;;9.13;4.30;;;1.80;99.90;;;;;;4884939;29;20447;-93
2022/01/17 21:56:39;;;;;;;13.70;5.38;;;1.80;99.90;;;;;;4884808;29;20024;-94